createdAt,value
2018-09-23T00:00:29.770Z,15.74
2018-09-23T00:01:29.760Z,15.70
2018-09-23T00:02:29.754Z,15.68
2018-09-23T00:03:29.745Z,15.71
2018-09-23T00:04:29.736Z,15.74
2018-09-23T00:05:29.727Z,15.76
2018-09-23T00:06:29.719Z,15.77
2018-09-23T00:07:29.710Z,15.76
2018-09-23T00:08:29.704Z,15.86
2018-09-23T00:09:29.694Z,15.85
2018-09-23T00:10:29.687Z,15.81
2018-09-23T00:11:29.675Z,15.71
2018-09-23T00:12:29.667Z,15.71
2018-09-23T00:13:29.659Z,15.70
2018-09-23T00:14:29.654Z,15.67
2018-09-23T00:15:29.642Z,15.70
2018-09-23T00:16:29.635Z,15.68
2018-09-23T00:17:29.626Z,15.58
2018-09-23T00:18:29.617Z,15.67
2018-09-23T00:19:29.611Z,15.74
2018-09-23T00:20:29.601Z,15.84
2018-09-23T00:21:29.590Z,15.86
2018-09-23T00:22:29.582Z,15.98
2018-09-23T00:23:29.575Z,15.91
2018-09-23T00:24:29.569Z,15.99
2018-09-23T00:25:29.558Z,15.93
2018-09-23T00:26:29.549Z,15.96
2018-09-23T00:27:29.540Z,15.98
2018-09-23T00:28:29.535Z,15.93
2018-09-23T00:29:29.523Z,15.84
2018-09-23T00:30:29.514Z,15.86
2018-09-23T00:31:29.506Z,15.74
2018-09-23T00:32:29.498Z,15.71
2018-09-23T00:33:29.488Z,15.66
2018-09-23T00:34:29.480Z,15.62
2018-09-23T00:35:29.471Z,15.44
2018-09-23T00:36:29.469Z,15.59
2018-09-23T00:37:29.455Z,15.51
2018-09-23T00:38:29.446Z,15.44
2018-09-23T00:39:29.437Z,15.48
2018-09-23T00:40:29.431Z,15.44
2018-09-23T00:41:29.420Z,15.51
2018-09-23T00:42:29.416Z,15.51
2018-09-23T00:43:29.404Z,15.48
2018-09-23T00:44:29.398Z,15.40
2018-09-23T00:45:29.391Z,15.44
2018-09-23T00:46:29.377Z,15.34
2018-09-23T00:47:29.369Z,15.49
2018-09-23T00:48:29.362Z,15.35
2018-09-23T00:49:29.352Z,15.41
2018-09-23T00:50:29.345Z,15.43
2018-09-23T00:51:29.335Z,15.37
2018-09-23T00:52:29.328Z,15.43
2018-09-23T00:53:29.318Z,15.40
2018-09-23T00:54:29.313Z,15.58
2018-09-23T00:55:29.306Z,15.62
2018-09-23T00:56:29.293Z,15.49
2018-09-23T00:57:29.287Z,15.58
2018-09-23T00:58:29.277Z,15.52
2018-09-23T00:59:29.267Z,15.62
2018-09-23T01:00:29.259Z,15.60
2018-09-23T01:01:29.251Z,15.58
2018-09-23T01:02:29.242Z,15.53
2018-09-23T01:03:29.233Z,15.62
2018-09-23T01:04:29.227Z,15.55
2018-09-23T01:05:29.215Z,15.59
2018-09-23T01:06:29.207Z,15.58
2018-09-23T01:07:29.200Z,15.62
2018-09-23T01:08:29.192Z,15.58
2018-09-23T01:09:29.183Z,15.59
2018-09-23T01:10:29.174Z,15.52
2018-09-23T01:11:29.166Z,15.62
2018-09-23T01:12:29.157Z,15.58
2018-09-23T01:13:29.148Z,15.60
2018-09-23T01:14:29.140Z,15.53
2018-09-23T01:15:29.132Z,15.40
2018-09-23T01:16:29.123Z,15.48
2018-09-23T01:17:29.116Z,15.46
2018-09-23T01:18:29.106Z,15.38
2018-09-23T01:19:29.096Z,15.48
2018-09-23T01:20:29.088Z,15.44
2018-09-23T01:21:29.078Z,15.51
2018-09-23T01:22:29.070Z,15.40
2018-09-23T01:23:29.070Z,15.40
2018-09-23T01:24:29.054Z,15.40
2018-09-23T01:25:29.044Z,15.49
2018-09-23T01:26:29.037Z,15.51
2018-09-23T01:27:29.028Z,15.53
2018-09-23T01:28:29.020Z,15.44
2018-09-23T01:29:29.011Z,15.55
2018-09-23T01:30:29.002Z,15.59
2018-09-23T01:31:28.994Z,15.60
2018-09-23T01:32:28.986Z,15.60
2018-09-23T01:33:28.977Z,15.60
2018-09-23T01:34:28.971Z,15.59
2018-09-23T01:35:28.960Z,15.56
2018-09-23T01:36:28.952Z,15.52
2018-09-23T01:37:28.942Z,15.48
2018-09-23T01:38:28.938Z,15.49
2018-09-23T01:39:28.929Z,15.46
2018-09-23T01:40:28.918Z,15.46
2018-09-23T01:41:28.909Z,15.56
2018-09-23T01:42:28.900Z,15.52
2018-09-23T01:43:28.891Z,15.58
2018-09-23T01:44:28.885Z,15.53
2018-09-23T01:45:28.874Z,15.53
2018-09-23T01:46:28.866Z,15.60
2018-09-23T01:47:28.858Z,15.59
2018-09-23T01:48:28.850Z,15.60
2018-09-23T01:49:28.840Z,15.64
2018-09-23T01:50:28.832Z,15.60
2018-09-23T01:51:28.824Z,15.71
2018-09-23T01:52:28.816Z,15.76
2018-09-23T01:53:28.807Z,15.67
2018-09-23T01:54:28.800Z,15.74
2018-09-23T01:55:28.790Z,15.77
2018-09-23T01:56:28.782Z,15.81
2018-09-23T01:57:28.773Z,15.80
2018-09-23T01:58:28.769Z,15.84
2018-09-23T01:59:28.757Z,15.85
2018-09-23T02:00:28.748Z,15.91
2018-09-23T02:01:28.739Z,15.78
2018-09-23T02:02:28.731Z,15.80
2018-09-23T02:03:28.721Z,15.86
2018-09-23T02:04:28.714Z,15.88
2018-09-23T02:05:28.704Z,15.88
2018-09-23T02:06:28.698Z,15.91
2018-09-23T02:07:28.688Z,15.89
2018-09-23T02:08:28.679Z,15.85
2018-09-23T02:09:28.672Z,15.80
2018-09-23T02:10:28.662Z,15.86
2018-09-23T02:11:28.656Z,15.81
2018-09-23T02:12:28.647Z,15.91
2018-09-23T02:13:28.637Z,15.88
2018-09-23T02:14:28.629Z,15.84
2018-09-23T02:15:28.621Z,15.81
2018-09-23T02:16:28.612Z,15.88
2018-09-23T02:17:28.602Z,15.89
2018-09-23T02:18:28.595Z,15.95
2018-09-23T02:19:28.586Z,15.96
2018-09-23T02:20:28.577Z,15.98
2018-09-23T02:21:28.569Z,15.92
2018-09-23T02:22:28.560Z,15.95
2018-09-23T02:23:28.552Z,16.06
2018-09-23T02:24:28.545Z,16.08
2018-09-23T02:25:28.539Z,15.99
2018-09-23T02:26:28.527Z,15.96
2018-09-23T02:27:28.519Z,15.96
2018-09-23T02:28:28.510Z,15.99
2018-09-23T02:29:28.501Z,16.04
2018-09-23T02:30:28.494Z,15.98
2018-09-23T02:31:28.485Z,15.99
2018-09-23T02:32:28.476Z,15.96
2018-09-23T02:33:28.467Z,15.88
2018-09-23T02:34:28.460Z,15.91
2018-09-23T02:35:28.451Z,15.86
2018-09-23T02:36:28.443Z,15.88
2018-09-23T02:37:28.434Z,15.88
2018-09-23T02:38:28.427Z,15.91
2018-09-23T02:39:28.419Z,15.91
2018-09-23T02:40:28.412Z,15.86
2018-09-23T02:41:28.400Z,15.89
2018-09-23T02:42:28.392Z,15.98
2018-09-23T02:43:28.394Z,15.96
2018-09-23T02:44:28.376Z,15.95
2018-09-23T02:45:28.367Z,15.99
2018-09-23T02:46:28.359Z,15.96
2018-09-23T02:47:28.351Z,15.95
2018-09-23T02:48:28.346Z,15.98
2018-09-23T02:49:28.334Z,15.96
2018-09-23T02:50:28.326Z,15.95
2018-09-23T02:51:28.318Z,15.98
2018-09-23T02:52:28.311Z,15.99
2018-09-23T02:53:28.300Z,16.08
2018-09-23T02:54:28.292Z,16.23
2018-09-23T02:55:28.284Z,16.25
2018-09-23T02:56:28.277Z,16.30
2018-09-23T02:57:28.267Z,16.26
2018-09-23T02:58:28.259Z,16.32
2018-09-23T02:59:28.250Z,16.27
2018-09-23T03:00:28.243Z,16.17
2018-09-23T03:01:28.233Z,16.10
2018-09-23T03:02:28.225Z,16.08
2018-09-23T03:03:28.217Z,16.10
2018-09-23T03:04:28.209Z,16.11
2018-09-23T03:05:28.200Z,16.14
2018-09-23T03:06:28.191Z,16.13
2018-09-23T03:07:28.184Z,16.10
2018-09-23T03:08:28.175Z,16.11
2018-09-23T03:09:28.167Z,16.10
2018-09-23T03:10:28.159Z,16.17
2018-09-23T03:11:28.150Z,16.08
2018-09-23T03:12:28.142Z,16.08
2018-09-23T03:13:28.135Z,16.22
2018-09-23T03:14:28.126Z,16.11
2018-09-23T03:15:28.117Z,16.14
2018-09-23T03:16:28.117Z,16.13
2018-09-23T03:17:28.100Z,16.07
2018-09-23T03:18:28.093Z,16.11
2018-09-23T03:19:28.091Z,16.18
2018-09-23T03:20:28.077Z,16.13
2018-09-23T03:21:28.066Z,16.18
2018-09-23T03:22:28.059Z,16.25
2018-09-23T03:23:28.051Z,16.13
2018-09-23T03:24:28.042Z,16.17
2018-09-23T03:25:28.034Z,16.17
2018-09-23T03:26:28.025Z,16.11
2018-09-23T03:27:28.017Z,16.18
2018-09-23T03:28:28.009Z,16.16
2018-09-23T03:29:28.000Z,16.16
2018-09-23T03:30:27.993Z,16.13
2018-09-23T03:31:27.984Z,16.25
2018-09-23T03:32:27.976Z,16.16
2018-09-23T03:33:27.973Z,16.27
2018-09-23T03:34:27.959Z,16.40
2018-09-23T03:35:27.951Z,16.37
2018-09-23T03:36:27.942Z,16.37
2018-09-23T03:37:27.934Z,16.30
2018-09-23T03:38:27.926Z,16.37
2018-09-23T03:39:27.918Z,16.37
2018-09-23T03:40:27.910Z,16.40
2018-09-23T03:41:27.905Z,16.37
2018-09-23T03:42:27.893Z,16.34
2018-09-23T03:43:27.885Z,16.36
2018-09-23T03:44:27.877Z,16.41
2018-09-23T03:45:27.868Z,16.41
2018-09-23T03:46:27.860Z,16.37
2018-09-23T03:47:27.852Z,16.40
2018-09-23T03:48:27.845Z,16.42
2018-09-23T03:49:27.836Z,16.41
2018-09-23T03:50:27.828Z,16.45
2018-09-23T03:51:27.820Z,16.45
2018-09-23T03:52:27.812Z,16.37
2018-09-23T03:53:27.803Z,16.48
2018-09-23T03:54:27.795Z,16.45
2018-09-23T03:55:27.788Z,16.50
2018-09-23T03:56:27.781Z,16.52
2018-09-23T03:57:27.771Z,16.42
2018-09-23T03:58:27.763Z,16.50
2018-09-23T03:59:27.755Z,16.52
2018-09-23T04:00:27.752Z,16.52
2018-09-23T04:01:27.740Z,16.54
2018-09-23T04:02:27.730Z,16.63
2018-09-23T04:03:27.724Z,16.67
2018-09-23T04:04:27.714Z,16.62
2018-09-23T04:05:27.707Z,16.62
2018-09-23T04:06:27.698Z,16.67
2018-09-23T04:07:27.690Z,16.80
2018-09-23T04:08:27.682Z,16.84
2018-09-23T04:09:27.675Z,16.85
2018-09-23T04:10:27.665Z,16.84
2018-09-23T04:11:27.663Z,16.84
2018-09-23T04:12:27.653Z,16.90
2018-09-23T04:13:27.641Z,16.85
2018-09-23T04:14:27.635Z,16.80
2018-09-23T04:15:27.627Z,16.92
2018-09-23T04:16:27.621Z,16.90
2018-09-23T04:17:27.617Z,16.84
2018-09-23T04:18:27.605Z,16.95
2018-09-23T04:19:27.594Z,17.07
2018-09-23T04:20:27.611Z,17.06
2018-09-23T04:21:27.578Z,17.10
2018-09-23T04:22:27.570Z,17.18
2018-09-23T04:23:27.562Z,17.33
2018-09-23T04:24:27.556Z,17.24
2018-09-23T04:25:27.546Z,17.36
2018-09-23T04:26:27.544Z,17.30
2018-09-23T04:27:27.530Z,17.28
2018-09-23T04:28:27.557Z,17.45
2018-09-23T04:29:27.514Z,17.51
2018-09-23T04:30:27.507Z,17.66
2018-09-23T04:31:27.499Z,17.66
2018-09-23T04:32:27.492Z,17.77
2018-09-23T04:33:27.483Z,17.71
2018-09-23T04:34:27.475Z,17.74
2018-09-23T04:35:27.468Z,17.79
2018-09-23T04:36:27.461Z,17.80
2018-09-23T04:37:27.451Z,17.86
2018-09-23T04:38:27.444Z,17.89
2018-09-23T04:39:27.436Z,17.87
2018-09-23T04:40:27.429Z,17.98
2018-09-23T04:41:27.421Z,17.95
2018-09-23T04:42:27.413Z,18.01
2018-09-23T04:43:27.406Z,17.94
2018-09-23T04:44:27.398Z,18.02
2018-09-23T04:45:27.390Z,18.01
2018-09-23T04:46:27.383Z,18.04
2018-09-23T04:47:27.376Z,18.11
2018-09-23T04:48:27.368Z,18.10
2018-09-23T04:49:27.360Z,18.10
2018-09-23T04:50:27.353Z,18.17
2018-09-23T04:51:27.345Z,18.14
2018-09-23T04:52:27.338Z,18.07
2018-09-23T04:53:27.331Z,18.19
2018-09-23T04:54:27.326Z,18.13
2018-09-23T04:55:27.401Z,18.25
2018-09-23T04:56:27.308Z,18.25
2018-09-23T04:57:27.301Z,18.26
2018-09-23T04:58:27.293Z,18.32
2018-09-23T04:59:27.286Z,18.23
2018-09-23T05:00:27.279Z,18.21
2018-09-23T05:01:27.271Z,18.31
2018-09-23T05:02:27.263Z,18.29
2018-09-23T05:03:27.257Z,18.32
2018-09-23T05:04:27.249Z,18.29
2018-09-23T05:05:27.241Z,18.31
2018-09-23T05:06:27.234Z,18.34
2018-09-23T05:07:27.227Z,18.28
2018-09-23T05:08:27.220Z,18.34
2018-09-23T05:09:27.213Z,18.34
2018-09-23T05:10:27.205Z,18.36
2018-09-23T05:11:27.199Z,18.38
2018-09-23T05:12:27.191Z,18.35
2018-09-23T05:13:27.183Z,18.31
2018-09-23T05:14:27.180Z,18.29
2018-09-23T05:15:27.173Z,18.41
2018-09-23T05:16:27.162Z,18.42
2018-09-23T05:17:27.159Z,18.35
2018-09-23T05:18:27.149Z,18.50
2018-09-23T05:19:27.140Z,18.44
2018-09-23T05:20:27.133Z,18.49
2018-09-23T05:21:27.125Z,18.49
2018-09-23T05:22:27.123Z,18.59
2018-09-23T05:23:27.111Z,18.64
2018-09-23T05:24:27.104Z,18.60
2018-09-23T05:25:27.096Z,18.68
2018-09-23T05:26:27.090Z,18.74
2018-09-23T05:27:27.084Z,18.83
2018-09-23T05:28:27.077Z,18.84
2018-09-23T05:29:27.068Z,18.89
2018-09-23T05:30:27.062Z,18.89
2018-09-23T05:31:27.054Z,18.90
2018-09-23T05:32:27.048Z,18.90
2018-09-23T05:33:27.042Z,18.93
2018-09-23T05:34:27.035Z,19.05
2018-09-23T05:35:27.057Z,18.99
2018-09-23T05:36:27.019Z,19.06
2018-09-23T05:37:27.027Z,19.09
2018-09-23T05:38:27.004Z,19.16
2018-09-23T05:39:27.000Z,19.09
2018-09-23T05:40:26.992Z,19.09
2018-09-23T05:41:26.984Z,19.13
2018-09-23T05:42:26.976Z,19.15
2018-09-23T05:43:26.970Z,19.17
2018-09-23T05:44:26.963Z,19.16
2018-09-23T05:45:26.955Z,19.27
2018-09-23T05:46:26.949Z,19.27
2018-09-23T05:47:26.942Z,19.34
2018-09-23T05:48:26.935Z,19.32
2018-09-23T05:49:26.929Z,19.40
2018-09-23T05:50:26.922Z,19.39
2018-09-23T05:51:26.915Z,19.35
2018-09-23T05:52:26.908Z,19.40
2018-09-23T05:53:26.900Z,19.42
2018-09-23T05:54:26.893Z,19.52
2018-09-23T05:55:26.887Z,19.57
2018-09-23T05:56:26.880Z,19.50
2018-09-23T05:57:26.872Z,19.68
2018-09-23T05:58:26.866Z,19.61
2018-09-23T05:59:26.860Z,19.64
2018-09-23T06:00:26.853Z,19.60
2018-09-23T06:01:26.845Z,19.68
2018-09-23T06:02:26.840Z,19.67
2018-09-23T06:03:26.833Z,19.67
2018-09-23T06:04:26.825Z,19.71
2018-09-23T06:05:26.819Z,19.70
2018-09-23T06:06:26.812Z,19.72
2018-09-23T06:07:26.805Z,19.79
2018-09-23T06:08:26.799Z,19.78
2018-09-23T06:09:26.792Z,19.76
2018-09-23T06:10:26.785Z,19.80
2018-09-23T06:11:26.782Z,19.76
2018-09-23T06:12:26.772Z,19.72
2018-09-23T06:13:26.765Z,19.72
2018-09-23T06:14:26.758Z,19.78
2018-09-23T06:15:26.754Z,19.76
2018-09-23T06:16:26.745Z,19.80
2018-09-23T06:17:26.738Z,19.82
2018-09-23T06:18:26.835Z,19.79
2018-09-23T06:19:26.725Z,19.86
2018-09-23T06:20:26.721Z,19.86
2018-09-23T06:21:26.712Z,19.83
2018-09-23T06:22:26.709Z,19.83
2018-09-23T06:23:26.704Z,19.86
2018-09-23T06:24:26.694Z,19.92
2018-09-23T06:25:26.686Z,19.89
2018-09-23T06:26:26.680Z,19.87
2018-09-23T06:27:26.675Z,19.86
2018-09-23T06:28:26.674Z,19.85
2018-09-23T06:29:26.660Z,19.87
2018-09-23T06:30:26.653Z,20.00
2018-09-23T06:31:26.647Z,19.87
2018-09-23T06:32:26.640Z,20.01
2018-09-23T06:33:26.633Z,19.90
2018-09-23T06:34:26.628Z,20.00
2018-09-23T06:35:26.623Z,19.94
2018-09-23T06:36:26.616Z,19.89
2018-09-23T06:37:26.616Z,20.01
2018-09-23T06:38:26.619Z,20.04
2018-09-23T06:39:26.594Z,20.05
2018-09-23T06:40:26.589Z,19.94
2018-09-23T06:41:26.581Z,20.01
2018-09-23T06:42:26.575Z,20.01
2018-09-23T06:43:26.568Z,20.02
2018-09-23T06:44:26.566Z,20.08
2018-09-23T06:45:26.561Z,20.00
2018-09-23T06:46:26.550Z,20.10
2018-09-23T06:47:26.542Z,20.10
2018-09-23T06:48:26.536Z,20.01
2018-09-23T06:49:26.528Z,20.04
2018-09-23T06:50:26.525Z,20.02
2018-09-23T06:51:26.519Z,20.00
2018-09-23T06:52:26.511Z,20.02
2018-09-23T06:53:26.503Z,20.01
2018-09-23T06:54:26.497Z,20.01
2018-09-23T06:55:26.490Z,20.01
2018-09-23T06:56:26.486Z,20.10
2018-09-23T06:57:26.478Z,20.04
2018-09-23T06:58:26.471Z,20.02
2018-09-23T06:59:26.465Z,20.07
2018-09-23T07:00:26.459Z,20.02
2018-09-23T07:01:26.453Z,20.08
2018-09-23T07:02:26.446Z,20.05
2018-09-23T07:03:26.440Z,20.12
2018-09-23T07:04:26.450Z,20.12
2018-09-23T07:05:26.427Z,20.10
2018-09-23T07:06:26.420Z,20.20
2018-09-23T07:07:26.414Z,20.19
2018-09-23T07:08:26.408Z,20.15
2018-09-23T07:09:26.401Z,20.20
2018-09-23T07:10:26.408Z,20.19
2018-09-23T07:11:26.390Z,20.19
2018-09-23T07:12:26.384Z,20.30
2018-09-23T07:13:26.377Z,20.35
2018-09-23T07:14:26.371Z,20.30
2018-09-23T07:15:26.364Z,20.37
2018-09-23T07:16:26.359Z,20.34
2018-09-23T07:17:26.351Z,20.37
2018-09-23T07:18:26.347Z,20.42
2018-09-23T07:19:26.342Z,20.48
2018-09-23T07:20:26.335Z,20.46
2018-09-23T07:21:26.328Z,20.46
2018-09-23T07:22:26.323Z,20.57
2018-09-23T07:23:26.319Z,20.60
2018-09-23T07:24:26.311Z,20.72
2018-09-23T07:25:26.307Z,20.68
2018-09-23T07:26:26.300Z,20.61
2018-09-23T07:27:26.293Z,20.60
2018-09-23T07:28:26.288Z,20.64
2018-09-23T07:29:26.281Z,20.63
2018-09-23T07:30:26.278Z,20.64
2018-09-23T07:31:26.270Z,20.68
2018-09-23T07:32:26.264Z,20.73
2018-09-23T07:33:26.259Z,20.68
2018-09-23T07:34:26.251Z,20.61
2018-09-23T07:35:26.249Z,20.63
2018-09-23T07:36:26.240Z,20.63
2018-09-23T07:37:26.233Z,20.71
2018-09-23T07:38:26.227Z,20.61
2018-09-23T07:39:26.279Z,20.60
2018-09-23T07:40:26.217Z,20.75
2018-09-23T07:41:26.210Z,20.78
2018-09-23T07:42:26.204Z,20.76
2018-09-23T07:43:26.204Z,20.76
2018-09-23T07:44:26.193Z,20.75
2018-09-23T07:45:26.187Z,20.75
2018-09-23T07:46:26.181Z,20.72
2018-09-23T07:47:26.175Z,20.76
2018-09-23T07:48:26.170Z,20.83
2018-09-23T07:49:26.163Z,20.93
2018-09-23T07:50:26.158Z,20.83
2018-09-23T07:51:26.153Z,20.83
2018-09-23T07:52:26.147Z,20.91
2018-09-23T07:53:26.140Z,20.90
2018-09-23T07:54:26.136Z,20.90
2018-09-23T07:55:26.130Z,20.91
2018-09-23T07:56:26.137Z,20.91
2018-09-23T07:57:26.116Z,20.93
2018-09-23T07:58:26.112Z,20.91
2018-09-23T07:59:26.106Z,20.97
2018-09-23T08:00:26.101Z,20.94
2018-09-23T08:01:26.096Z,21.03
2018-09-23T08:02:26.089Z,20.98
2018-09-23T08:03:26.153Z,21.08
2018-09-23T08:04:26.078Z,21.15
2018-09-23T08:05:26.072Z,21.16
2018-09-23T08:06:26.075Z,21.15
2018-09-23T08:07:26.062Z,21.26
2018-09-23T08:08:26.060Z,21.37
2018-09-23T08:09:26.053Z,21.46
2018-09-23T08:10:26.046Z,21.46
2018-09-23T08:11:26.041Z,21.55
2018-09-23T08:12:26.132Z,21.74
2018-09-23T08:13:26.110Z,21.83
2018-09-23T08:14:26.423Z,22.09
2018-09-23T08:15:26.020Z,22.24
2018-09-23T08:16:26.014Z,22.27
2018-09-23T08:17:26.009Z,22.41
2018-09-23T08:18:26.004Z,22.44
2018-09-23T08:19:26.133Z,22.46
2018-09-23T08:20:26.180Z,22.48
2018-09-23T08:21:25.990Z,22.48
2018-09-23T08:22:25.984Z,22.48
2018-09-23T08:23:25.979Z,22.49
2018-09-23T08:24:26.051Z,22.49
2018-09-23T08:25:26.013Z,22.51
2018-09-23T08:26:26.025Z,22.61
2018-09-23T08:27:25.960Z,22.64
2018-09-23T08:28:25.955Z,22.76
2018-09-23T08:29:25.952Z,22.93
2018-09-23T08:30:25.945Z,22.97
2018-09-23T08:31:25.940Z,22.99
2018-09-23T08:32:25.936Z,23.00
2018-09-23T08:33:25.934Z,23.07
2018-09-23T08:34:25.927Z,23.06
2018-09-23T08:35:25.922Z,22.96
2018-09-23T08:36:25.918Z,22.97
2018-09-23T08:37:25.982Z,22.94
2018-09-23T08:38:25.909Z,22.99
2018-09-23T08:39:25.905Z,22.96
2018-09-23T08:40:25.902Z,22.88
2018-09-23T08:41:25.900Z,22.76
2018-09-23T08:42:25.890Z,22.78
2018-09-23T08:43:25.888Z,22.84
2018-09-23T08:44:25.883Z,22.75
2018-09-23T08:45:25.882Z,22.74
2018-09-23T08:46:25.878Z,22.78
2018-09-23T08:47:25.872Z,22.88
2018-09-23T08:48:25.915Z,22.96
2018-09-23T08:49:25.863Z,23.03
2018-09-23T08:50:25.860Z,22.94
2018-09-23T08:51:25.857Z,22.94
2018-09-23T08:52:25.851Z,23.00
2018-09-23T08:53:25.846Z,22.99
2018-09-23T08:54:25.841Z,22.96
2018-09-23T08:55:25.837Z,22.91
2018-09-23T08:56:25.833Z,22.96
2018-09-23T08:57:25.829Z,22.97
2018-09-23T08:58:25.825Z,22.97
2018-09-23T08:59:25.820Z,23.00
2018-09-23T09:00:25.820Z,23.11
2018-09-23T09:01:25.812Z,23.06
2018-09-23T09:02:25.809Z,23.19
2018-09-23T09:03:25.823Z,23.23
2018-09-23T09:04:25.802Z,23.31
2018-09-23T09:05:25.795Z,23.21
2018-09-23T09:06:25.792Z,23.19
2018-09-23T09:07:25.791Z,23.23
2018-09-23T09:08:25.783Z,23.32
2018-09-23T09:09:25.779Z,23.29
2018-09-23T09:10:25.775Z,23.25
2018-09-23T09:11:25.781Z,23.23
2018-09-23T09:12:25.767Z,23.21
2018-09-23T09:13:25.762Z,23.23
2018-09-23T09:14:25.759Z,23.22
2018-09-23T09:15:25.763Z,23.31
2018-09-23T09:16:25.752Z,23.32
2018-09-23T09:17:25.747Z,23.34
2018-09-23T09:18:25.906Z,23.38
2018-09-23T09:19:25.739Z,23.47
2018-09-23T09:20:25.736Z,23.57
2018-09-23T09:21:25.731Z,23.53
2018-09-23T09:22:25.732Z,23.57
2018-09-23T09:23:25.723Z,23.56
2018-09-23T09:24:25.718Z,23.60
2018-09-23T09:25:25.714Z,23.59
2018-09-23T09:26:25.711Z,23.49
2018-09-23T09:27:25.707Z,23.50
2018-09-23T09:28:25.702Z,23.45
2018-09-23T09:29:25.699Z,23.67
2018-09-23T09:30:25.694Z,23.60
2018-09-23T09:31:25.691Z,23.67
2018-09-23T09:32:25.689Z,23.67
2018-09-23T09:33:25.683Z,23.62
2018-09-23T09:34:25.681Z,23.60
2018-09-23T09:35:25.786Z,23.67
2018-09-23T09:36:25.675Z,23.74
2018-09-23T09:37:25.668Z,23.75
2018-09-23T09:38:25.675Z,23.84
2018-09-23T09:39:25.661Z,23.81
2018-09-23T09:40:25.658Z,23.75
2018-09-23T09:41:25.653Z,23.82
2018-09-23T09:42:25.650Z,23.77
2018-09-23T09:43:25.647Z,23.63
2018-09-23T09:44:25.643Z,23.63
2018-09-23T09:45:25.639Z,23.68
2018-09-23T09:46:25.636Z,23.62
2018-09-23T09:47:25.632Z,23.62
2018-09-23T09:48:25.629Z,23.63
2018-09-23T09:49:25.625Z,23.56
2018-09-23T09:50:25.621Z,23.45
2018-09-23T09:51:25.617Z,23.53
2018-09-23T09:52:25.616Z,23.37
2018-09-23T09:53:25.617Z,23.29
2018-09-23T09:54:25.606Z,23.21
2018-09-23T09:55:25.656Z,23.23
2018-09-23T09:56:25.599Z,23.23
2018-09-23T09:57:25.595Z,23.21
2018-09-23T09:58:25.593Z,23.18
2018-09-23T09:59:25.588Z,23.19
2018-09-23T10:00:25.585Z,23.34
2018-09-23T10:01:25.580Z,23.15
2018-09-23T10:02:25.579Z,23.25
2018-09-23T10:03:25.573Z,23.09
2018-09-23T10:04:25.571Z,23.12
2018-09-23T10:05:25.565Z,23.03
2018-09-23T10:06:25.562Z,23.18
2018-09-23T10:07:25.558Z,23.18
2018-09-23T10:08:25.554Z,23.22
2018-09-23T10:09:25.549Z,23.21
2018-09-23T10:10:25.549Z,23.14
2018-09-23T10:11:25.612Z,23.09
2018-09-23T10:12:25.540Z,23.23
2018-09-23T10:13:25.540Z,23.22
2018-09-23T10:14:25.535Z,22.93
2018-09-23T10:15:25.529Z,22.85
2018-09-23T10:16:25.527Z,22.91
2018-09-23T10:17:25.524Z,22.96
2018-09-23T10:18:25.519Z,23.01
2018-09-23T10:19:25.513Z,23.04
2018-09-23T10:20:25.510Z,23.19
2018-09-23T10:21:25.505Z,23.32
2018-09-23T10:22:25.525Z,23.54
2018-09-23T10:23:25.740Z,23.56
2018-09-23T10:24:25.494Z,23.63
2018-09-23T10:25:25.491Z,23.57
2018-09-23T10:26:25.486Z,23.63
2018-09-23T10:27:25.484Z,23.63
2018-09-23T10:28:25.478Z,23.68
2018-09-23T10:29:25.474Z,23.71
2018-09-23T10:30:25.479Z,23.81
2018-09-23T10:31:25.555Z,23.89
2018-09-23T10:32:25.467Z,23.87
2018-09-23T10:33:25.459Z,23.96
2018-09-23T10:34:25.455Z,24.04
2018-09-23T10:35:25.452Z,24.11
2018-09-23T10:36:25.448Z,24.18
2018-09-23T10:37:25.444Z,24.31
2018-09-23T10:38:25.438Z,24.36
2018-09-23T10:39:25.434Z,24.59
2018-09-23T10:40:25.432Z,24.75
2018-09-23T10:41:25.529Z,24.87
2018-09-23T10:42:25.424Z,24.84
2018-09-23T10:43:25.420Z,24.82
2018-09-23T10:44:25.416Z,24.83
2018-09-23T10:45:25.414Z,24.77
2018-09-23T10:46:25.409Z,24.86
2018-09-23T10:47:25.405Z,24.84
2018-09-23T10:48:25.402Z,24.82
2018-09-23T10:49:25.398Z,24.70
2018-09-23T10:50:25.395Z,24.77
2018-09-23T10:51:25.392Z,24.75
2018-09-23T10:52:25.389Z,24.90
2018-09-23T10:53:25.386Z,24.97
2018-09-23T10:54:25.383Z,24.92
2018-09-23T10:55:25.406Z,25.14
2018-09-23T10:56:25.376Z,25.26
2018-09-23T10:57:25.372Z,25.20
2018-09-23T10:58:25.370Z,25.27
2018-09-23T10:59:25.456Z,25.46
2018-09-23T11:00:25.363Z,25.59
2018-09-23T11:01:25.364Z,25.71
2018-09-23T11:02:25.358Z,25.71
2018-09-23T11:03:25.353Z,25.89
2018-09-23T11:04:25.352Z,26.00
2018-09-23T11:05:25.349Z,26.08
2018-09-23T11:06:25.343Z,26.21
2018-09-23T11:07:25.443Z,26.36
2018-09-23T11:08:25.339Z,26.36
2018-09-23T11:09:25.335Z,26.28
2018-09-23T11:10:25.332Z,26.32
2018-09-23T11:11:25.430Z,26.31
2018-09-23T11:12:25.327Z,26.20
2018-09-23T11:13:25.324Z,26.32
2018-09-23T11:14:25.322Z,26.38
2018-09-23T11:15:25.377Z,26.44
2018-09-23T11:16:25.325Z,26.46
2018-09-23T11:17:25.313Z,26.28
2018-09-23T11:18:25.311Z,26.27
2018-09-23T11:19:25.309Z,26.08
2018-09-23T11:20:25.308Z,25.94
2018-09-23T11:21:25.303Z,25.93
2018-09-23T11:22:25.306Z,25.85
2018-09-23T11:23:25.384Z,25.89
2018-09-23T11:24:25.296Z,25.74
2018-09-23T11:25:25.293Z,25.67
2018-09-23T11:26:25.290Z,25.78
2018-09-23T11:27:25.289Z,25.76
2018-09-23T11:28:25.286Z,25.69
2018-09-23T11:29:25.283Z,25.69
2018-09-23T11:30:25.280Z,25.71
2018-09-23T11:31:25.279Z,25.67
2018-09-23T11:32:25.299Z,25.60
2018-09-23T11:33:25.273Z,25.78
2018-09-23T11:34:25.270Z,25.76
2018-09-23T11:35:25.267Z,25.82
2018-09-23T11:36:25.266Z,25.83
2018-09-23T11:37:25.262Z,25.89
2018-09-23T11:38:25.259Z,26.06
2018-09-23T11:39:25.257Z,26.06
2018-09-23T11:40:25.256Z,25.91
2018-09-23T11:41:25.253Z,26.03
2018-09-23T11:42:25.249Z,26.11
2018-09-23T11:43:25.248Z,26.11
2018-09-23T11:44:25.247Z,26.11
2018-09-23T11:45:25.243Z,26.01
2018-09-23T11:46:25.244Z,26.06
2018-09-23T11:47:25.237Z,26.12
2018-09-23T11:48:25.237Z,26.13
2018-09-23T11:49:25.233Z,26.13
2018-09-23T11:50:25.232Z,26.06
2018-09-23T11:51:25.229Z,26.04
2018-09-23T11:52:25.230Z,26.00
2018-09-23T11:53:25.224Z,26.01
2018-09-23T11:54:25.222Z,26.17
2018-09-23T11:55:25.220Z,26.13
2018-09-23T11:56:25.217Z,26.34
2018-09-23T11:57:25.214Z,26.27
2018-09-23T11:58:25.212Z,26.35
2018-09-23T11:59:25.214Z,26.57
2018-09-23T12:00:25.209Z,26.59
2018-09-23T12:01:25.207Z,26.54
2018-09-23T12:02:25.204Z,26.75
2018-09-23T12:03:25.203Z,26.68
2018-09-23T12:04:25.251Z,26.73
2018-09-23T12:05:25.197Z,26.79
2018-09-23T12:06:25.195Z,27.02
2018-09-23T12:07:25.195Z,27.08
2018-09-23T12:08:25.191Z,27.15
2018-09-23T12:09:25.188Z,27.12
2018-09-23T12:10:25.229Z,27.15
2018-09-23T12:11:25.185Z,27.27
2018-09-23T12:12:25.187Z,27.30
2018-09-23T12:13:25.181Z,27.21
2018-09-23T12:14:25.179Z,27.24
2018-09-23T12:15:25.178Z,27.28
2018-09-23T12:16:25.176Z,27.43
2018-09-23T12:17:25.175Z,27.63
2018-09-23T12:18:25.172Z,27.68
2018-09-23T12:19:25.171Z,27.65
2018-09-23T12:20:25.169Z,27.77
2018-09-23T12:21:25.167Z,27.74
2018-09-23T12:22:25.166Z,27.77
2018-09-23T12:23:25.166Z,27.81
2018-09-23T12:24:25.163Z,27.96
2018-09-23T12:25:25.249Z,27.99
2018-09-23T12:26:25.162Z,27.96
2018-09-23T12:27:25.159Z,27.93
2018-09-23T12:28:25.158Z,27.96
2018-09-23T12:29:25.164Z,28.13
2018-09-23T12:30:25.155Z,28.14
2018-09-23T12:31:25.153Z,28.01
2018-09-23T12:32:25.152Z,27.95
2018-09-23T12:33:25.221Z,27.93
2018-09-23T12:34:25.155Z,27.88
2018-09-23T12:35:25.155Z,27.90
2018-09-23T12:36:25.151Z,27.99
2018-09-23T12:37:25.146Z,28.13
2018-09-23T12:38:25.146Z,28.28
2018-09-23T12:39:25.187Z,28.50
2018-09-23T12:40:25.145Z,28.60
2018-09-23T12:41:25.146Z,28.57
2018-09-23T12:42:25.141Z,28.54
2018-09-23T12:43:25.140Z,28.54
2018-09-23T12:44:25.142Z,28.50
2018-09-23T12:45:25.138Z,28.36
2018-09-23T12:46:25.138Z,28.36
2018-09-23T12:47:25.141Z,28.40
2018-09-23T12:48:25.137Z,28.42
2018-09-23T12:49:25.135Z,28.36
2018-09-23T12:50:25.134Z,28.32
2018-09-23T12:51:25.134Z,28.38
2018-09-23T12:52:25.134Z,28.28